createdAt,value
2022-09-04T00:02:33.157Z,16.50
2022-09-04T00:05:04.889Z,16.51
2022-09-04T00:07:40.810Z,16.55
2022-09-04T00:10:17.545Z,16.69
2022-09-04T00:12:49.768Z,16.73
2022-09-04T00:15:22.538Z,16.73
2022-09-04T00:17:57.604Z,16.72
2022-09-04T00:20:35.376Z,16.80
2022-09-04T00:23:08.034Z,16.83
2022-09-04T00:25:44.396Z,16.93
2022-09-04T00:28:18.416Z,16.85
2022-09-04T00:30:56.909Z,16.83
2022-09-04T00:33:31.321Z,16.91
2022-09-04T00:36:04.139Z,16.88
2022-09-04T00:38:42.493Z,16.91
2022-09-04T00:41:22.712Z,16.93
2022-09-04T00:44:08.589Z,17.01
2022-09-04T00:47:07.010Z,16.98
2022-09-04T00:49:50.847Z,17.04
2022-09-04T00:52:36.604Z,17.16
2022-09-04T00:55:28.731Z,17.15
2022-09-04T00:58:08.693Z,17.13
2022-09-04T01:00:39.541Z,17.14
2022-09-04T01:03:42.533Z,17.24
2022-09-04T01:06:22.163Z,17.40
2022-09-04T01:09:17.278Z,17.45
2022-09-04T01:11:56.001Z,17.48
2022-09-04T01:14:34.424Z,17.54
2022-09-04T01:17:14.042Z,17.57
2022-09-04T01:19:51.679Z,17.57
2022-09-04T01:22:41.334Z,17.58
2022-09-04T01:25:27.938Z,17.55
2022-09-04T01:28:03.411Z,17.58
2022-09-04T01:30:34.705Z,17.55
2022-09-04T01:33:10.076Z,17.56
2022-09-04T01:35:45.228Z,17.55
2022-09-04T01:38:18.911Z,17.54
2022-09-04T01:40:52.474Z,17.73
2022-09-04T01:43:24.150Z,17.59
2022-09-04T01:46:20.023Z,17.52
2022-09-04T01:48:54.226Z,17.45
2022-09-04T01:51:33.988Z,17.42
2022-09-04T01:54:13.554Z,17.30
2022-09-04T01:56:47.379Z,17.21
2022-09-04T01:59:27.024Z,17.28
2022-09-04T02:02:03.797Z,17.27
2022-09-04T02:04:41.172Z,17.23
2022-09-04T02:07:26.210Z,17.25
2022-09-04T02:10:07.950Z,17.39
2022-09-04T02:12:43.104Z,17.42
2022-09-04T02:15:41.187Z,17.46
2022-09-04T02:18:22.192Z,17.57
2022-09-04T02:20:57.284Z,17.53
2022-09-04T02:23:35.805Z,17.47
2022-09-04T02:26:10.327Z,17.52
2022-09-04T02:28:48.505Z,17.44
2022-09-04T02:31:29.258Z,17.49
2022-09-04T02:34:06.386Z,17.53
2022-09-04T02:36:40.985Z,17.60
2022-09-04T02:39:18.696Z,17.52
2022-09-04T02:41:58.254Z,17.47
2022-09-04T02:44:36.815Z,17.54
2022-09-04T02:47:19.215Z,17.42
2022-09-04T02:49:59.547Z,17.33
2022-09-04T02:52:47.469Z,17.27
2022-09-04T02:55:30.378Z,17.22
2022-09-04T02:58:08.842Z,17.26
2022-09-04T03:00:45.936Z,17.25
2022-09-04T03:03:19.745Z,17.28
2022-09-04T03:05:54.356Z,17.22
2022-09-04T03:08:26.529Z,17.23
2022-09-04T03:10:59.520Z,17.09
2022-09-04T03:13:31.814Z,17.18
2022-09-04T03:16:06.444Z,17.23
2022-09-04T03:18:54.394Z,17.17
2022-09-04T03:21:26.137Z,17.17
2022-09-04T03:24:00.628Z,17.14
2022-09-04T03:26:31.059Z,17.13
2022-09-04T03:29:11.165Z,17.12
2022-09-04T03:31:46.895Z,17.06
2022-09-04T03:34:25.273Z,16.98
2022-09-04T03:37:11.779Z,17.09
2022-09-04T03:39:50.705Z,17.16
2022-09-04T03:42:32.413Z,17.16
2022-09-04T03:45:13.043Z,17.17
2022-09-04T03:47:51.456Z,17.12
2022-09-04T03:50:29.432Z,17.15
2022-09-04T03:53:06.811Z,17.00
2022-09-04T03:56:03.838Z,16.97
2022-09-04T03:58:45.999Z,16.90
2022-09-04T04:01:25.145Z,16.78
2022-09-04T04:04:11.339Z,16.85
2022-09-04T04:06:49.849Z,16.92
2022-09-04T04:09:40.404Z,16.89
2022-09-04T04:12:34.982Z,17.04
2022-09-04T04:15:20.272Z,16.98
2022-09-04T04:18:19.392Z,16.96
2022-09-04T04:20:59.734Z,17.06
2022-09-04T04:24:02.312Z,17.13
2022-09-04T04:26:40.646Z,16.96
2022-09-04T04:29:43.328Z,16.85
2022-09-04T04:32:29.578Z,16.77
2022-09-04T04:35:11.430Z,16.86
2022-09-04T04:37:51.742Z,16.82
2022-09-04T04:40:33.410Z,16.87
2022-09-04T04:43:09.598Z,16.74
2022-09-04T04:45:50.496Z,16.81
2022-09-04T04:48:48.578Z,16.90
2022-09-04T04:51:32.007Z,16.98
2022-09-04T04:54:14.112Z,16.87
2022-09-04T04:56:51.714Z,16.84
2022-09-04T04:59:28.286Z,16.97
2022-09-04T05:02:09.308Z,16.82
2022-09-04T05:04:46.133Z,16.84
2022-09-04T05:07:23.632Z,16.88
2022-09-04T05:10:02.806Z,17.01
2022-09-04T05:12:49.407Z,16.91
2022-09-04T05:15:26.361Z,16.81
2022-09-04T05:17:58.353Z,16.76
2022-09-04T05:20:34.208Z,16.82
2022-09-04T05:23:13.073Z,16.83
2022-09-04T05:25:47.273Z,16.84
2022-09-04T05:28:28.016Z,16.88
2022-09-04T05:31:06.962Z,16.93
2022-09-04T05:33:41.434Z,17.05
2022-09-04T05:36:17.406Z,17.17
2022-09-04T05:38:55.768Z,17.04
2022-09-04T05:41:37.489Z,17.01
2022-09-04T05:44:27.291Z,17.05
2022-09-04T05:47:05.929Z,17.13
2022-09-04T05:50:02.428Z,17.23
2022-09-04T05:52:42.257Z,17.28
2022-09-04T05:55:25.045Z,17.26
2022-09-04T05:58:19.432Z,17.49
2022-09-04T06:01:00.411Z,17.49
2022-09-04T06:03:38.933Z,17.45
2022-09-04T06:06:22.321Z,17.81
2022-09-04T06:09:28.204Z,17.96
2022-09-04T06:12:19.243Z,17.97
2022-09-04T06:15:16.896Z,17.85
2022-09-04T06:17:56.643Z,18.02
2022-09-04T06:20:39.724Z,18.04
2022-09-04T06:23:21.670Z,18.29
2022-09-04T06:26:18.922Z,18.24
2022-09-04T06:29:06.639Z,18.38
2022-09-04T06:31:54.879Z,18.44
2022-09-04T06:34:36.367Z,18.58
2022-09-04T06:37:17.554Z,18.45
2022-09-04T06:40:02.356Z,18.58
2022-09-04T06:42:49.867Z,18.74
2022-09-04T06:45:28.424Z,18.75
2022-09-04T06:48:09.508Z,18.88
2022-09-04T06:50:52.127Z,18.93
2022-09-04T06:53:32.150Z,18.98
2022-09-04T06:56:11.389Z,18.93
2022-09-04T06:59:13.775Z,19.06
2022-09-04T07:01:50.641Z,18.90
2022-09-04T07:04:32.516Z,18.92
2022-09-04T07:07:10.557Z,19.09
2022-09-04T07:09:43.884Z,18.87
2022-09-04T07:12:38.549Z,18.70
2022-09-04T07:15:36.788Z,18.73
2022-09-04T07:18:13.537Z,18.85
2022-09-04T07:20:50.149Z,18.90
2022-09-04T07:23:35.980Z,18.89
2022-09-04T07:26:17.210Z,19.19
2022-09-04T07:29:08.933Z,19.17
2022-09-04T07:31:42.973Z,19.16
2022-09-04T07:34:17.670Z,19.19
2022-09-04T07:36:54.274Z,19.37
2022-09-04T07:39:30.599Z,19.48
2022-09-04T07:42:05.921Z,19.49
2022-09-04T07:44:42.183Z,19.62
2022-09-04T07:47:18.279Z,19.89
2022-09-04T07:49:59.110Z,20.12
2022-09-04T07:52:45.342Z,20.38
2022-09-04T07:55:25.013Z,20.76
2022-09-04T07:58:28.230Z,20.92
2022-09-04T08:01:10.360Z,21.33
2022-09-04T08:03:56.329Z,21.22
2022-09-04T08:06:31.166Z,21.26
2022-09-04T08:09:28.901Z,21.33
2022-09-04T08:12:31.637Z,21.36
2022-09-04T08:15:11.743Z,21.42
2022-09-04T08:18:03.368Z,21.73
2022-09-04T08:20:42.806Z,21.60
2022-09-04T08:23:30.085Z,21.69
2022-09-04T08:26:14.104Z,21.85
2022-09-04T08:28:58.940Z,21.43
2022-09-04T08:31:31.943Z,21.60
2022-09-04T08:34:42.360Z,21.08
2022-09-04T08:37:22.358Z,21.31
2022-09-04T08:40:14.861Z,21.56
2022-09-04T08:43:16.790Z,21.79
2022-09-04T08:46:06.374Z,22.09
2022-09-04T08:49:10.410Z,22.66
2022-09-04T08:52:19.013Z,22.38
2022-09-04T08:55:18.247Z,22.21
2022-09-04T08:58:19.643Z,22.12
2022-09-04T09:01:08.477Z,22.01
2022-09-04T09:04:15.686Z,22.09
2022-09-04T09:07:06.182Z,22.68
2022-09-04T09:09:57.548Z,22.53
2022-09-04T09:12:54.326Z,22.61
2022-09-04T09:15:52.390Z,22.96
2022-09-04T09:18:36.998Z,23.28
2022-09-04T09:21:11.491Z,23.40
2022-09-04T09:23:47.882Z,23.90
2022-09-04T09:26:29.311Z,24.05
2022-09-04T09:29:43.879Z,23.99
2022-09-04T09:32:44.021Z,23.40
2022-09-04T09:35:38.077Z,23.63
2022-09-04T09:38:32.459Z,23.68
2022-09-04T09:41:34.317Z,23.81
2022-09-04T09:44:43.052Z,23.96
2022-09-04T09:47:39.582Z,24.56
2022-09-04T09:50:48.563Z,24.48
2022-09-04T09:53:56.872Z,23.84
2022-09-04T09:57:01.754Z,23.72
2022-09-04T09:59:55.030Z,23.79
2022-09-04T10:02:55.343Z,23.54
2022-09-04T10:05:59.120Z,23.18
2022-09-04T10:08:51.821Z,23.27
2022-09-04T10:12:00.538Z,23.44
2022-09-04T10:14:58.625Z,23.41
2022-09-04T10:17:57.536Z,23.63
2022-09-04T10:20:58.434Z,23.85
2022-09-04T10:23:45.187Z,23.84
2022-09-04T10:26:44.106Z,23.85
2022-09-04T10:29:49.828Z,23.74
2022-09-04T10:32:45.764Z,23.55
2022-09-04T10:35:25.350Z,23.29
2022-09-04T10:38:17.729Z,23.49
2022-09-04T10:41:08.971Z,23.45
2022-09-04T10:43:57.153Z,23.58
2022-09-04T10:46:30.159Z,23.60
2022-09-04T10:49:15.523Z,23.69
2022-09-04T10:52:20.107Z,23.89
2022-09-04T10:55:26.661Z,24.15
2022-09-04T10:58:39.850Z,24.14
2022-09-04T11:01:44.473Z,24.36
2022-09-04T11:04:45.736Z,24.18
2022-09-04T11:07:37.786Z,24.34
2022-09-04T11:10:19.628Z,24.61
2022-09-04T11:13:25.315Z,24.31
2022-09-04T11:16:09.451Z,24.67
2022-09-04T11:19:10.476Z,24.56
2022-09-04T11:22:23.709Z,24.90
2022-09-04T11:25:26.948Z,25.02
2022-09-04T11:28:20.447Z,25.03
2022-09-04T11:31:15.797Z,24.94
2022-09-04T11:34:16.452Z,24.98
2022-09-04T11:37:11.958Z,25.23
2022-09-04T11:40:18.862Z,25.21
2022-09-04T11:43:13.787Z,25.23
2022-09-04T11:46:04.838Z,25.14
2022-09-04T11:49:17.122Z,25.29
2022-09-04T11:52:28.162Z,25.44
2022-09-04T11:55:14.131Z,25.38
2022-09-04T11:57:54.411Z,25.30
2022-09-04T12:00:23.296Z,25.18
2022-09-04T12:03:17.633Z,25.18
2022-09-04T12:05:56.139Z,25.30
2022-09-04T12:08:44.011Z,25.48
2022-09-04T12:11:37.356Z,25.78
2022-09-04T12:14:19.947Z,25.93
2022-09-04T12:17:41.280Z,26.01
2022-09-04T12:20:45.291Z,25.95
2022-09-04T12:23:32.409Z,26.04
2022-09-04T12:26:27.042Z,26.00
2022-09-04T12:29:22.141Z,26.21
2022-09-04T12:32:20.468Z,26.29
2022-09-04T12:35:17.401Z,26.32
2022-09-04T12:38:07.108Z,26.29
2022-09-04T12:40:35.546Z,26.28
2022-09-04T12:43:25.966Z,26.40
2022-09-04T12:46:06.208Z,25.80
2022-09-04T12:48:42.492Z,26.10
2022-09-04T12:51:14.193Z,26.07
2022-09-04T12:53:58.514Z,26.41
2022-09-04T12:56:42.808Z,26.41
2022-09-04T12:59:31.047Z,26.33
2022-09-04T13:02:05.828Z,26.45
2022-09-04T13:04:45.440Z,26.42
2022-09-04T13:07:31.605Z,26.43
2022-09-04T13:10:12.637Z,26.59
2022-09-04T13:12:48.921Z,26.67
2022-09-04T13:15:40.396Z,26.73
2022-09-04T13:18:21.466Z,26.67
2022-09-04T13:20:55.705Z,26.70
2022-09-04T13:23:37.762Z,26.87
2022-09-04T13:26:25.060Z,27.05
2022-09-04T13:29:04.087Z,27.14
2022-09-04T13:32:00.319Z,27.13
2022-09-04T13:34:38.404Z,27.08
2022-09-04T13:37:14.943Z,27.17
2022-09-04T13:40:19.829Z,27.07
2022-09-04T13:43:19.239Z,26.98
2022-09-04T13:45:51.934Z,27.13
2022-09-04T13:48:37.326Z,27.17
2022-09-04T13:51:13.771Z,27.15
2022-09-04T13:53:55.594Z,27.19
2022-09-04T13:56:29.418Z,27.14
2022-09-04T13:59:09.436Z,27.21
2022-09-04T14:01:45.815Z,27.21
2022-09-04T14:04:23.606Z,27.21
2022-09-04T14:06:51.324Z,27.15
2022-09-04T14:09:18.970Z,27.22
2022-09-04T14:12:09.496Z,27.30
2022-09-04T14:15:00.034Z,27.25
2022-09-04T14:17:37.161Z,27.13
2022-09-04T14:20:16.783Z,27.18
2022-09-04T14:22:58.928Z,27.20
2022-09-04T14:25:35.175Z,27.38
2022-09-04T14:28:13.185Z,27.30
2022-09-04T14:30:50.672Z,27.28
2022-09-04T14:33:35.867Z,27.13
2022-09-04T14:36:22.096Z,27.29
2022-09-04T14:39:15.838Z,27.33
2022-09-04T14:42:02.828Z,27.32
2022-09-04T14:44:48.395Z,27.40
2022-09-04T14:47:27.995Z,27.60
2022-09-04T14:49:57.636Z,27.69
2022-09-04T14:52:35.501Z,27.54
2022-09-04T14:55:13.979Z,27.55
2022-09-04T14:57:46.106Z,27.47
2022-09-04T15:00:17.357Z,27.47
2022-09-04T15:02:50.396Z,27.46
2022-09-04T15:05:23.242Z,27.31
2022-09-04T15:07:59.267Z,27.31
2022-09-04T15:10:47.469Z,27.17
2022-09-04T15:13:48.680Z,27.05
2022-09-04T15:16:25.014Z,27.00
2022-09-04T15:18:58.942Z,27.02
2022-09-04T15:21:35.492Z,26.98
2022-09-04T15:24:14.950Z,26.86
2022-09-04T15:26:47.081Z,26.92
2022-09-04T15:29:21.043Z,26.87
2022-09-04T15:31:49.475Z,26.87
2022-09-04T15:34:21.739Z,26.83
2022-09-04T15:36:50.612Z,26.88
2022-09-04T15:39:30.255Z,26.81
2022-09-04T15:41:57.930Z,26.77
2022-09-04T15:44:30.582Z,26.59
2022-09-04T15:47:04.742Z,26.61
2022-09-04T15:49:44.843Z,26.39
2022-09-04T15:52:29.589Z,26.31
2022-09-04T15:55:09.230Z,26.27
2022-09-04T15:57:49.886Z,26.21
2022-09-04T16:00:23.281Z,26.20
2022-09-04T16:02:59.319Z,26.19
2022-09-04T16:05:33.436Z,26.15
2022-09-04T16:08:06.134Z,26.08
2022-09-04T16:10:54.805Z,26.06
2022-09-04T16:13:34.721Z,26.11
2022-09-04T16:16:09.748Z,26.01
2022-09-04T16:18:52.190Z,25.87
2022-09-04T16:21:32.274Z,25.87
2022-09-04T16:24:07.936Z,25.82
2022-09-04T16:26:39.223Z,25.78
2022-09-04T16:29:15.811Z,25.66
2022-09-04T16:31:53.077Z,25.57
2022-09-04T16:34:24.373Z,25.53
2022-09-04T16:37:01.883Z,25.53
2022-09-04T16:39:38.699Z,25.58
2022-09-04T16:42:19.599Z,25.53
2022-09-04T16:44:52.347Z,25.55
2022-09-04T16:47:29.105Z,25.47
2022-09-04T16:50:03.530Z,25.46
2022-09-04T16:52:45.550Z,25.43
2022-09-04T16:55:17.236Z,25.38
2022-09-04T16:58:07.116Z,25.35
2022-09-04T17:00:56.213Z,25.35
2022-09-04T17:03:44.800Z,25.35
2022-09-04T17:06:23.927Z,25.34
2022-09-04T17:08:59.544Z,25.34
2022-09-04T17:11:37.379Z,25.30
2022-09-04T17:14:14.868Z,25.19
2022-09-04T17:16:53.545Z,25.09
2022-09-04T17:19:22.083Z,24.98
2022-09-04T17:28:57.615Z,24.86
2022-09-04T17:29:07.542Z,24.57
2022-09-04T17:29:13.394Z,24.75
2022-09-04T17:31:25.811Z,24.47
2022-09-04T17:40:37.325Z,24.06
2022-09-04T17:40:41.464Z,24.33
2022-09-04T17:40:51.771Z,24.15
2022-09-04T17:42:41.201Z,23.90
2022-09-04T17:45:39.162Z,23.79
2022-09-04T17:48:24.085Z,23.70
2022-09-04T17:50:55.560Z,23.59
2022-09-04T17:53:34.052Z,23.52
2022-09-04T17:56:09.195Z,23.43
2022-09-04T17:58:42.866Z,23.31
2022-09-04T18:01:18.228Z,23.29
2022-09-04T18:04:20.640Z,23.21
2022-09-04T18:06:55.549Z,23.09
2022-09-04T18:09:28.627Z,22.98
2022-09-04T18:12:11.053Z,22.93
2022-09-04T18:15:11.754Z,22.87
2022-09-04T18:17:48.363Z,22.83
2022-09-04T18:20:28.696Z,22.76
2022-09-04T18:23:09.081Z,22.64
2022-09-04T18:25:44.052Z,22.51
2022-09-04T18:28:20.482Z,22.45
2022-09-04T18:37:10.039Z,22.38
2022-09-04T18:37:10.141Z,22.34
2022-09-04T18:37:26.210Z,22.28
2022-09-04T18:39:42.111Z,22.21
2022-09-04T18:50:23.776Z,22.18
2022-09-04T18:50:34.792Z,22.14
2022-09-04T18:50:39.985Z,22.12
2022-09-04T18:51:19.301Z,22.17
2022-09-04T18:53:52.105Z,22.28
2022-09-04T18:56:26.397Z,22.29
2022-09-04T18:59:05.136Z,22.31
2022-09-04T19:01:41.603Z,22.29
2022-09-04T19:04:35.284Z,22.22
2022-09-04T19:07:07.672Z,22.17
2022-09-04T19:09:56.148Z,22.07
2022-09-04T19:12:36.964Z,21.96
2022-09-04T19:15:36.862Z,21.86
2022-09-04T19:18:13.547Z,21.77
2022-09-04T19:20:47.415Z,21.69
2022-09-04T19:23:24.664Z,21.63
2022-09-04T19:25:55.872Z,21.60
2022-09-04T19:28:28.297Z,21.55
2022-09-04T19:30:59.565Z,21.52
2022-09-04T19:33:36.378Z,21.45
2022-09-04T19:36:10.677Z,21.40
2022-09-04T19:43:55.764Z,21.35
2022-09-04T19:46:00.060Z,21.37
2022-09-04T19:46:14.682Z,21.35
2022-09-04T19:47:29.832Z,21.28
2022-09-04T19:53:21.987Z,21.27
2022-09-04T19:53:24.517Z,21.23
2022-09-04T19:56:00.241Z,21.17
2022-09-04T19:58:37.916Z,21.12
2022-09-04T20:01:14.318Z,21.10
2022-09-04T20:03:48.854Z,21.12
2022-09-04T20:06:25.377Z,21.09
2022-09-04T20:08:59.632Z,21.07
2022-09-04T20:11:35.684Z,21.02
2022-09-04T20:14:14.748Z,20.97
2022-09-04T20:16:57.640Z,20.95
2022-09-04T20:19:31.160Z,20.92
2022-09-04T20:22:03.545Z,20.88
2022-09-04T20:24:39.549Z,20.86
2022-09-04T20:27:15.540Z,20.90
2022-09-04T20:29:54.613Z,20.92
2022-09-04T20:32:27.746Z,20.91
2022-09-04T20:35:14.046Z,20.87
2022-09-04T20:37:48.996Z,20.84
2022-09-04T20:40:31.283Z,20.77
2022-09-04T20:43:14.722Z,20.71
2022-09-04T20:48:43.330Z,20.70
2022-09-04T20:52:52.233Z,20.58
2022-09-04T20:53:00.039Z,20.63
2022-09-04T20:54:55.157Z,20.62
2022-09-04T21:02:31.927Z,20.72
2022-09-04T21:03:22.692Z,20.75
2022-09-04T21:03:28.890Z,20.72
2022-09-04T21:06:22.669Z,20.69
2022-09-04T21:09:00.032Z,20.54
2022-09-04T21:11:40.690Z,20.43
2022-09-04T21:14:17.413Z,20.40
2022-09-04T21:17:33.974Z,20.18
2022-09-04T21:20:59.912Z,20.07
2022-09-04T21:24:03.833Z,19.98
2022-09-04T21:26:53.158Z,19.90
2022-09-04T21:29:51.033Z,19.91
2022-09-04T21:32:36.481Z,19.93
2022-09-04T21:35:11.970Z,19.91
2022-09-04T21:37:52.125Z,19.81
2022-09-04T21:40:51.830Z,19.83
2022-09-04T21:43:57.890Z,19.82
2022-09-04T21:46:41.896Z,19.79
2022-09-04T21:49:30.602Z,19.71
2022-09-04T21:52:24.628Z,19.69
2022-09-04T22:00:16.073Z,19.60
2022-09-04T22:02:27.832Z,19.60
2022-09-04T22:02:45.675Z,19.62
2022-09-04T22:04:12.132Z,19.56
2022-09-04T22:08:20.452Z,19.54
2022-09-04T22:13:42.100Z,19.56
2022-09-04T22:13:42.100Z,19.63
2022-09-04T22:16:06.924Z,19.56
2022-09-04T22:18:46.634Z,19.50
2022-09-04T22:21:25.743Z,19.44
2022-09-04T22:24:35.069Z,19.39
2022-09-04T22:27:37.710Z,19.45
2022-09-04T22:30:23.130Z,19.53
2022-09-04T22:33:48.324Z,19.47
2022-09-04T22:37:00.836Z,19.41
2022-09-04T22:39:48.796Z,19.23
2022-09-04T22:42:41.135Z,19.19
2022-09-04T22:45:28.923Z,19.16
2022-09-04T22:48:23.673Z,19.27
2022-09-04T22:51:06.613Z,19.12
2022-09-04T22:53:57.168Z,19.08
2022-09-04T22:56:41.046Z,19.11
2022-09-04T22:59:28.554Z,19.01
2022-09-04T23:02:54.220Z,18.98
2022-09-04T23:05:34.471Z,18.95
2022-09-04T23:13:48.958Z,18.91
2022-09-04T23:13:53.899Z,18.75
2022-09-04T23:14:20.066Z,18.70
2022-09-04T23:17:11.051Z,18.66
2022-09-04T23:26:35.670Z,18.68
2022-09-04T23:26:41.495Z,18.53
2022-09-04T23:26:44.480Z,18.61
2022-09-04T23:29:23.260Z,18.46
2022-09-04T23:32:13.490Z,18.45
2022-09-04T23:35:15.117Z,18.49
2022-09-04T23:38:20.065Z,18.43
2022-09-04T23:40:51.429Z,18.45
2022-09-04T23:43:50.696Z,18.44
2022-09-04T23:46:42.627Z,18.40
2022-09-04T23:49:33.571Z,18.37
2022-09-04T23:52:07.893Z,18.34
2022-09-04T23:54:57.718Z,18.29
2022-09-04T23:57:29.478Z,18.22
